Flagstaff (FLG/KFLG)

Map

Destinations

Information

Location
Flagstaff, AZ
Local Time
23:35 / 11:35 pm
GMT Time
06:35 / 6:35 am
Gates
Unassigned
No FAA reported delays
METAR KFLG 220621Z AUTO 22004KT 10SM BKN008 04/03 A3028 RMK AO2 T00440033
TAF
  • No charts available